createdAt,value
2023-03-02T00:01:50.538Z,9.18
2023-03-02T00:04:45.677Z,8.95
2023-03-02T00:07:19.460Z,8.38
2023-03-02T00:09:47.610Z,7.22
2023-03-02T00:12:16.152Z,7.88
2023-03-02T00:14:43.150Z,9.68
2023-03-02T00:17:10.688Z,9.43
2023-03-02T00:19:38.969Z,7.45
2023-03-02T00:22:06.023Z,10.00
2023-03-02T00:24:33.053Z,9.15
2023-03-02T00:27:00.214Z,8.77
2023-03-02T00:29:27.230Z,7.40
2023-03-02T00:31:54.429Z,7.88
2023-03-02T00:34:21.582Z,9.25
2023-03-02T00:36:51.490Z,7.55
2023-03-02T00:39:20.105Z,9.05
2023-03-02T00:41:48.684Z,8.00
2023-03-02T00:44:19.515Z,8.27
2023-03-02T00:46:46.632Z,8.88
2023-03-02T00:49:13.733Z,9.55
2023-03-02T00:51:40.679Z,9.30
2023-03-02T00:54:07.772Z,9.50
2023-03-02T00:56:35.402Z,9.55
2023-03-02T00:59:43.094Z,8.82
2023-03-02T01:02:25.207Z,9.05
2023-03-02T01:04:56.119Z,9.57
2023-03-02T01:07:26.184Z,10.07
2023-03-02T01:09:53.196Z,8.23
2023-03-02T01:12:20.395Z,10.57
2023-03-02T01:14:50.787Z,8.43
2023-03-02T01:17:19.154Z,9.45
2023-03-02T01:19:46.415Z,11.13
2023-03-02T01:22:13.559Z,9.45
2023-03-02T01:24:40.514Z,8.93
2023-03-02T01:27:53.184Z,10.85
2023-03-02T01:30:20.671Z,15.07
2023-03-02T01:32:47.705Z,10.73
2023-03-02T01:35:14.924Z,10.50
2023-03-02T01:37:41.949Z,12.32
2023-03-02T01:40:13.936Z,11.43
2023-03-02T01:42:52.626Z,14.45
2023-03-02T01:45:53.366Z,13.52
2023-03-02T01:48:59.640Z,14.15
2023-03-02T01:51:43.673Z,13.10
2023-03-02T01:54:23.095Z,13.85
2023-03-02T01:57:03.226Z,13.07
2023-03-02T01:59:33.492Z,16.42
2023-03-02T02:02:06.325Z,16.60
2023-03-02T02:04:38.840Z,14.93
2023-03-02T02:07:08.975Z,16.88
2023-03-02T02:09:46.130Z,14.10
2023-03-02T02:12:18.407Z,17.98
2023-03-02T02:14:48.282Z,16.75
2023-03-02T02:17:18.237Z,19.85
2023-03-02T02:20:07.311Z,19.83
2023-03-02T02:22:53.189Z,21.48
2023-03-02T02:25:45.070Z,23.85
2023-03-02T02:28:21.758Z,27.92
2023-03-02T02:31:04.049Z,27.90
2023-03-02T02:33:34.722Z,25.58
2023-03-02T02:36:13.999Z,29.00
2023-03-02T02:38:45.798Z,27.55
2023-03-02T02:41:22.703Z,21.83
2023-03-02T02:43:51.210Z,30.50
2023-03-02T02:46:18.460Z,29.30
2023-03-02T02:48:45.460Z,31.00
2023-03-02T02:51:22.773Z,32.70
2023-03-02T02:54:04.032Z,30.85
2023-03-02T02:56:39.694Z,31.85
2023-03-02T03:02:00.165Z,32.72
2023-03-02T03:04:32.063Z,29.85
2023-03-02T03:07:06.180Z,31.77
2023-03-02T03:09:33.831Z,25.20
2023-03-02T03:12:11.254Z,32.28
2023-03-02T03:14:41.851Z,36.85
2023-03-02T03:17:13.900Z,33.10
2023-03-02T03:19:53.170Z,32.03
2023-03-02T03:22:20.521Z,27.42
2023-03-02T03:24:50.251Z,32.35
2023-03-02T03:27:18.678Z,34.75
2023-03-02T03:29:50.249Z,35.60
2023-03-02T03:32:20.456Z,33.30
2023-03-02T03:34:49.971Z,37.97
2023-03-02T03:37:27.073Z,34.53
2023-03-02T03:39:55.285Z,33.90
2023-03-02T03:42:24.073Z,36.78
2023-03-02T03:44:52.258Z,36.08
2023-03-02T03:47:22.510Z,37.00
2023-03-02T03:49:50.755Z,38.22
2023-03-02T03:52:18.027Z,34.53
2023-03-02T03:54:44.955Z,35.75
2023-03-02T03:57:12.171Z,30.63
2023-03-02T03:59:39.888Z,36.80
2023-03-02T04:02:07.112Z,37.97
2023-03-02T04:04:38.606Z,35.95
2023-03-02T04:07:10.405Z,38.55
2023-03-02T04:09:39.277Z,36.53
2023-03-02T04:12:09.817Z,36.22
2023-03-02T04:14:38.893Z,41.97
2023-03-02T04:17:07.112Z,39.55
2023-03-02T04:19:37.567Z,42.38
2023-03-02T04:22:05.385Z,40.00
2023-03-02T04:24:33.475Z,42.50
2023-03-02T04:27:03.500Z,37.53
2023-03-02T04:29:32.395Z,39.47
2023-03-02T04:32:01.111Z,43.30
2023-03-02T04:34:28.775Z,36.30
2023-03-02T04:36:56.562Z,35.92
2023-03-02T04:39:23.795Z,41.08
2023-03-02T04:41:53.704Z,35.17
2023-03-02T04:44:21.532Z,44.55
2023-03-02T04:46:50.406Z,39.65
2023-03-02T04:49:19.760Z,42.53
2023-03-02T04:51:49.536Z,42.35
2023-03-02T04:54:26.494Z,45.97
2023-03-02T04:56:55.147Z,42.70
2023-03-02T04:59:27.501Z,44.58
2023-03-02T05:02:00.972Z,45.72
2023-03-02T05:04:29.096Z,48.55
2023-03-02T05:06:57.332Z,42.90
2023-03-02T05:09:30.910Z,46.67
2023-03-02T05:12:01.060Z,46.57
2023-03-02T05:14:29.229Z,44.20
2023-03-02T05:16:57.044Z,43.75
2023-03-02T05:19:24.353Z,46.38
2023-03-02T05:21:51.468Z,46.33
2023-03-02T05:24:19.014Z,37.97
2023-03-02T05:26:46.048Z,48.85
2023-03-02T05:29:13.147Z,46.47
2023-03-02T05:31:43.823Z,47.67
2023-03-02T05:34:14.670Z,50.17
2023-03-02T05:36:42.872Z,55.78
2023-03-02T05:39:10.104Z,47.08
2023-03-02T05:41:38.018Z,47.72
2023-03-02T05:44:09.380Z,45.78
2023-03-02T05:46:37.081Z,44.50
2023-03-02T05:49:04.762Z,54.53
2023-03-02T05:51:31.777Z,42.58
2023-03-02T05:53:59.307Z,50.35
2023-03-02T05:56:26.428Z,51.83
2023-03-02T05:58:53.486Z,49.58
2023-03-02T06:01:20.481Z,45.88
2023-03-02T06:03:47.477Z,39.13
2023-03-02T06:06:14.593Z,45.80
2023-03-02T06:08:43.394Z,49.65
2023-03-02T06:11:11.980Z,41.03
2023-03-02T06:13:40.107Z,42.25
2023-03-02T06:16:08.834Z,41.42
2023-03-02T06:18:39.736Z,48.95
2023-03-02T06:21:08.255Z,42.00
2023-03-02T06:23:35.310Z,45.20
2023-03-02T06:26:11.338Z,49.55
2023-03-02T06:28:51.499Z,41.30
2023-03-02T06:31:20.695Z,40.95
2023-03-02T06:33:47.863Z,43.75
2023-03-02T06:36:17.023Z,49.40
2023-03-02T06:38:44.269Z,34.10
2023-03-02T06:41:11.266Z,40.03
2023-03-02T06:43:38.302Z,38.83
2023-03-02T06:46:05.568Z,47.05
2023-03-02T06:48:32.609Z,52.38
2023-03-02T06:50:59.590Z,44.40
2023-03-02T06:53:26.721Z,43.90
2023-03-02T06:55:53.898Z,42.97
2023-03-02T06:58:21.017Z,48.30
2023-03-02T07:00:48.068Z,43.40
2023-03-02T07:03:15.062Z,46.10
2023-03-02T07:05:42.753Z,45.88
2023-03-02T07:08:12.248Z,48.45
2023-03-02T07:10:39.224Z,39.60
2023-03-02T07:13:08.722Z,34.10
2023-03-02T07:15:39.662Z,36.13
2023-03-02T07:18:06.728Z,41.28
2023-03-02T07:20:34.645Z,32.47
2023-03-02T07:23:01.866Z,37.13
2023-03-02T07:25:28.861Z,43.33
2023-03-02T07:27:55.933Z,40.45
2023-03-02T07:30:23.166Z,41.70
2023-03-02T07:32:51.176Z,41.25
2023-03-02T07:35:18.653Z,38.55
2023-03-02T07:37:45.613Z,36.55
2023-03-02T07:40:13.485Z,34.40
2023-03-02T07:42:40.856Z,42.47
2023-03-02T07:45:08.804Z,34.67
2023-03-02T07:47:35.866Z,40.10
2023-03-02T07:50:03.544Z,36.47
2023-03-02T07:52:30.941Z,37.33
2023-03-02T07:54:58.049Z,34.83
2023-03-02T07:57:25.081Z,37.78
2023-03-02T07:59:52.072Z,34.70
2023-03-02T08:02:20.512Z,35.08
2023-03-02T08:04:48.114Z,31.23
2023-03-02T08:07:15.339Z,29.60
2023-03-02T08:09:42.331Z,34.47
2023-03-02T08:12:09.874Z,28.95
2023-03-02T08:14:38.145Z,30.27
2023-03-02T08:17:07.031Z,29.52
2023-03-02T08:19:34.160Z,30.38
2023-03-02T08:22:02.508Z,24.85
2023-03-02T08:24:29.745Z,29.90
2023-03-02T08:27:02.088Z,31.90
2023-03-02T08:29:30.302Z,28.70
2023-03-02T08:31:58.967Z,28.98
2023-03-02T08:34:26.708Z,25.92
2023-03-02T08:36:53.874Z,27.67
2023-03-02T08:39:22.436Z,28.25
2023-03-02T08:41:53.363Z,29.88
2023-03-02T08:44:23.670Z,27.70
2023-03-02T08:46:51.777Z,25.08
2023-03-02T08:49:19.957Z,24.95
2023-03-02T08:51:53.331Z,25.80
2023-03-02T08:54:21.305Z,26.00
2023-03-02T08:56:48.882Z,25.75
2023-03-02T08:59:16.550Z,25.92
2023-03-02T09:01:43.580Z,24.52
2023-03-02T09:04:11.202Z,25.88
2023-03-02T09:06:43.048Z,25.00
2023-03-02T09:09:12.515Z,22.83
2023-03-02T09:11:40.281Z,25.10
2023-03-02T09:14:07.178Z,24.52
2023-03-02T09:16:34.304Z,25.20
2023-03-02T09:19:01.345Z,24.45
2023-03-02T09:21:28.461Z,21.67
2023-03-02T09:23:58.066Z,23.95
2023-03-02T09:26:26.853Z,24.50
2023-03-02T09:28:54.594Z,23.70
2023-03-02T09:31:21.798Z,23.20
2023-03-02T09:33:48.785Z,23.70
2023-03-02T09:36:22.422Z,22.88
2023-03-02T09:38:49.787Z,22.17
2023-03-02T09:41:19.994Z,24.23
2023-03-02T09:44:17.749Z,22.38
2023-03-02T09:47:05.057Z,24.38
2023-03-02T09:50:04.769Z,21.55
2023-03-02T09:53:05.834Z,20.75
2023-03-02T09:55:36.872Z,22.27
2023-03-02T09:58:17.248Z,23.90
2023-03-02T10:00:45.720Z,23.55
2023-03-02T10:03:23.591Z,20.70
2023-03-02T10:05:56.030Z,21.30
2023-03-02T10:08:27.860Z,23.00
2023-03-02T10:11:15.736Z,19.63
2023-03-02T10:14:03.571Z,21.35
2023-03-02T10:17:22.853Z,19.83
2023-03-02T10:20:10.721Z,20.08
2023-03-02T10:22:51.296Z,21.42
2023-03-02T10:25:35.985Z,19.27
2023-03-02T10:28:26.398Z,19.50
2023-03-02T10:31:31.088Z,19.65
2023-03-02T10:33:59.524Z,19.83
2023-03-02T10:36:37.571Z,17.38
2023-03-02T10:39:13.839Z,19.52
2023-03-02T10:41:58.324Z,16.77
2023-03-02T10:44:37.694Z,18.90
2023-03-02T10:47:07.519Z,17.13
2023-03-02T10:49:41.473Z,22.98
2023-03-02T10:52:22.396Z,21.30
2023-03-02T10:54:49.521Z,17.00
2023-03-02T10:57:41.180Z,17.48
2023-03-02T11:00:23.514Z,18.02
2023-03-02T11:03:00.285Z,16.65
2023-03-02T11:05:41.389Z,17.88
2023-03-02T11:08:20.294Z,17.23
2023-03-02T11:11:00.617Z,15.95
2023-03-02T11:13:36.147Z,17.40
2023-03-02T11:16:19.714Z,15.25
2023-03-02T11:19:03.498Z,15.68
2023-03-02T11:21:38.263Z,16.88
2023-03-02T11:24:14.144Z,16.48
2023-03-02T11:27:20.099Z,15.75
2023-03-02T11:30:12.689Z,13.98
2023-03-02T11:32:49.201Z,14.32
2023-03-02T11:35:43.413Z,14.02
2023-03-02T11:38:50.404Z,17.63
2023-03-02T11:41:34.628Z,17.38
2023-03-02T11:44:17.410Z,13.85
2023-03-02T11:46:51.153Z,14.55
2023-03-02T11:49:26.684Z,14.23
2023-03-02T11:52:00.590Z,14.93
2023-03-02T11:54:47.080Z,12.70
2023-03-02T11:57:31.063Z,15.50
2023-03-02T11:59:59.759Z,14.20
2023-03-02T12:02:27.747Z,13.13
2023-03-02T12:05:23.203Z,14.20
2023-03-02T12:08:03.767Z,12.85
2023-03-02T12:10:41.414Z,14.90
2023-03-02T12:13:27.385Z,13.80
2023-03-02T12:15:57.657Z,13.05
2023-03-02T12:18:24.887Z,13.27
2023-03-02T12:21:24.111Z,12.23
2023-03-02T12:23:51.058Z,12.85
2023-03-02T12:26:20.751Z,12.30
2023-03-02T12:29:10.953Z,13.45
2023-03-02T12:31:56.565Z,12.68
2023-03-02T12:34:35.952Z,12.13
2023-03-02T12:37:41.913Z,13.23
2023-03-02T12:40:40.365Z,12.77
2023-03-02T12:43:32.089Z,14.10
2023-03-02T12:46:28.462Z,12.20
2023-03-02T12:49:11.578Z,11.85
2023-03-02T12:52:00.797Z,11.88
2023-03-02T12:54:32.481Z,12.73
2023-03-02T12:57:13.408Z,10.25
2023-03-02T12:59:41.022Z,12.60
2023-03-02T13:02:25.825Z,12.25
2023-03-02T13:07:37.966Z,9.48
2023-03-02T13:10:16.199Z,10.55
2023-03-02T13:12:45.967Z,11.73
2023-03-02T13:15:17.777Z,10.32
2023-03-02T13:17:53.955Z,11.48
2023-03-02T13:20:24.624Z,10.52
2023-03-02T13:22:52.042Z,9.98
2023-03-02T13:25:24.527Z,10.38
2023-03-02T13:28:00.943Z,10.30
2023-03-02T13:30:31.906Z,11.40
2023-03-02T13:33:17.769Z,10.55
2023-03-02T13:35:47.823Z,9.65
2023-03-02T13:38:22.739Z,11.27
2023-03-02T13:40:53.494Z,14.73
2023-03-02T13:43:30.048Z,9.73
2023-03-02T13:46:01.607Z,10.88
2023-03-02T13:48:29.667Z,11.38
2023-03-02T13:51:13.984Z,11.93
2023-03-02T13:53:51.966Z,11.02
2023-03-02T13:56:20.699Z,11.95
2023-03-02T13:58:47.782Z,12.90
2023-03-02T14:01:14.895Z,10.40
2023-03-02T14:03:41.817Z,10.75
2023-03-02T14:06:09.561Z,12.77
2023-03-02T14:08:36.590Z,9.52
2023-03-02T14:11:05.505Z,10.48
2023-03-02T14:13:40.372Z,8.85
2023-03-02T14:16:12.584Z,9.88
2023-03-02T14:18:44.891Z,11.48
2023-03-02T14:21:14.579Z,9.43
2023-03-02T14:23:41.962Z,9.52
2023-03-02T14:26:37.762Z,8.90
2023-03-02T14:29:34.476Z,8.30
2023-03-02T14:32:04.659Z,8.57
2023-03-02T14:34:32.111Z,9.18
2023-03-02T14:37:04.566Z,11.38
2023-03-02T14:39:39.783Z,14.15
2023-03-02T14:42:16.904Z,11.35
2023-03-02T14:44:46.759Z,11.48
2023-03-02T14:47:16.595Z,9.82
2023-03-02T14:49:44.051Z,11.23
2023-03-02T14:52:26.436Z,8.80
2023-03-02T14:54:59.753Z,9.82
2023-03-02T14:57:33.325Z,13.57
2023-03-02T15:00:00.291Z,10.80
2023-03-02T15:02:29.255Z,9.57
2023-03-02T15:04:57.293Z,10.48
2023-03-02T15:07:27.872Z,10.50
2023-03-02T15:09:57.499Z,10.75
2023-03-02T15:12:24.894Z,10.23
2023-03-02T15:14:52.091Z,10.50
2023-03-02T15:17:19.292Z,10.15
2023-03-02T15:19:47.129Z,9.95
2023-03-02T15:22:14.225Z,10.30
2023-03-02T15:24:41.304Z,13.75
2023-03-02T15:27:08.584Z,10.10
2023-03-02T15:29:35.631Z,9.77
2023-03-02T15:32:02.698Z,9.60
2023-03-02T15:34:29.719Z,10.60
2023-03-02T15:36:56.700Z,8.68
2023-03-02T15:39:23.746Z,9.82
2023-03-02T15:41:50.699Z,8.88
2023-03-02T15:44:22.624Z,8.85
2023-03-02T15:46:55.039Z,9.00
2023-03-02T15:49:24.856Z,8.57
2023-03-02T15:51:52.202Z,13.40
2023-03-02T15:54:19.455Z,7.90
2023-03-02T15:56:53.201Z,8.90
2023-03-02T15:59:22.743Z,8.73
2023-03-02T16:01:50.112Z,11.35
2023-03-02T16:04:17.913Z,7.80
2023-03-02T16:06:44.972Z,7.40
2023-03-02T16:09:12.778Z,8.60
2023-03-02T16:11:39.891Z,7.32
2023-03-02T16:14:07.190Z,7.95
2023-03-02T16:16:34.266Z,7.43
2023-03-02T16:19:01.737Z,8.75
2023-03-02T16:21:29.113Z,7.72
2023-03-02T16:24:03.303Z,6.95
2023-03-02T16:26:33.947Z,8.05
2023-03-02T16:29:02.603Z,8.05
2023-03-02T16:31:33.077Z,9.00
2023-03-02T16:34:03.767Z,8.35
2023-03-02T16:36:30.786Z,9.88
2023-03-02T16:38:57.803Z,8.40
2023-03-02T16:41:25.596Z,8.88
2023-03-02T16:43:57.258Z,11.07
2023-03-02T16:46:29.349Z,14.65
2023-03-02T16:48:58.144Z,19.45
2023-03-02T16:51:25.773Z,17.17
2023-03-02T16:53:53.157Z,17.10
2023-03-02T16:56:20.789Z,18.58
2023-03-02T16:58:48.532Z,17.00
2023-03-02T17:01:22.673Z,18.80
2023-03-02T17:03:50.919Z,17.23
2023-03-02T17:06:22.365Z,17.92
2023-03-02T17:08:50.823Z,16.85
2023-03-02T17:11:19.259Z,19.10
2023-03-02T17:13:47.189Z,19.48
2023-03-02T17:16:16.360Z,20.27
2023-03-02T17:18:46.877Z,20.27
2023-03-02T17:21:16.831Z,20.25
2023-03-02T17:23:48.240Z,20.27
2023-03-02T17:26:17.248Z,19.38
2023-03-02T17:28:44.307Z,19.05
2023-03-02T17:31:11.494Z,20.10
2023-03-02T17:33:39.568Z,19.55
2023-03-02T17:36:12.313Z,20.25
2023-03-02T17:38:40.296Z,19.85
2023-03-02T17:41:10.551Z,19.38
2023-03-02T17:43:40.718Z,19.15
2023-03-02T17:46:28.489Z,17.77
2023-03-02T17:48:58.754Z,18.35
2023-03-02T17:51:28.445Z,18.83
2023-03-02T17:53:56.661Z,22.42
2023-03-02T17:56:26.752Z,18.67
2023-03-02T17:58:57.124Z,18.92
2023-03-02T18:01:24.785Z,19.70
2023-03-02T18:03:51.929Z,18.67
2023-03-02T18:06:20.668Z,18.92
2023-03-02T18:08:50.322Z,20.65
2023-03-02T18:11:20.835Z,19.20
2023-03-02T18:13:48.548Z,17.73
2023-03-02T18:16:15.784Z,20.67
2023-03-02T18:18:42.725Z,19.27
2023-03-02T18:21:09.714Z,18.10
2023-03-02T18:23:36.743Z,20.45
2023-03-02T18:26:03.879Z,22.25
2023-03-02T18:28:31.220Z,19.75
2023-03-02T18:30:58.267Z,21.23
2023-03-02T18:33:25.680Z,22.50
2023-03-02T18:35:52.723Z,21.50
2023-03-02T18:38:19.859Z,24.58
2023-03-02T18:40:46.912Z,23.13
2023-03-02T18:43:13.839Z,25.35
2023-03-02T18:45:41.527Z,29.02
2023-03-02T18:48:08.934Z,24.63
2023-03-02T18:50:37.085Z,25.38
2023-03-02T18:53:04.078Z,27.58
2023-03-02T18:55:31.219Z,28.15
2023-03-02T18:57:58.269Z,27.33
2023-03-02T19:00:28.247Z,27.13
2023-03-02T19:02:57.108Z,28.63
2023-03-02T19:05:26.908Z,31.20
2023-03-02T19:07:54.752Z,29.50
2023-03-02T19:10:21.763Z,32.20
2023-03-02T19:12:48.949Z,29.42
2023-03-02T19:15:16.326Z,32.28
2023-03-02T19:17:43.870Z,30.23
2023-03-02T19:20:15.528Z,30.17
2023-03-02T19:22:42.943Z,30.55
2023-03-02T19:25:10.694Z,30.55
2023-03-02T19:27:37.967Z,28.05
2023-03-02T19:30:07.795Z,31.42
2023-03-02T19:32:35.049Z,32.53
2023-03-02T19:35:02.817Z,30.02
2023-03-02T19:37:29.835Z,31.08
2023-03-02T19:39:56.920Z,35.95
2023-03-02T19:42:23.932Z,32.03
2023-03-02T19:44:51.056Z,33.55
2023-03-02T19:47:18.047Z,33.33
2023-03-02T19:49:45.024Z,33.75
2023-03-02T19:52:12.042Z,36.20
2023-03-02T19:54:38.997Z,34.22
2023-03-02T19:57:07.744Z,34.95
2023-03-02T19:59:36.537Z,32.80
2023-03-02T20:02:03.702Z,33.38
2023-03-02T20:04:30.676Z,34.97
2023-03-02T20:06:57.669Z,37.55
2023-03-02T20:09:24.962Z,33.88
2023-03-02T20:11:52.132Z,38.60
2023-03-02T20:14:32.605Z,34.08
2023-03-02T20:17:01.079Z,38.25
2023-03-02T20:19:28.229Z,33.92
2023-03-02T20:21:55.324Z,34.72
2023-03-02T20:24:22.326Z,36.10
2023-03-02T20:26:49.528Z,31.30
2023-03-02T20:29:17.250Z,32.97
2023-03-02T20:31:44.770Z,37.28
2023-03-02T20:34:15.883Z,33.22
2023-03-02T20:36:44.366Z,33.55
2023-03-02T20:39:25.142Z,28.42
2023-03-02T20:41:53.019Z,30.23
2023-03-02T20:44:22.359Z,28.25
2023-03-02T20:46:57.267Z,27.85
2023-03-02T20:49:27.356Z,30.05
2023-03-02T20:51:58.565Z,27.63
2023-03-02T20:54:32.836Z,27.77
2023-03-02T20:57:00.213Z,26.80
2023-03-02T20:59:28.033Z,29.10
2023-03-02T21:01:55.366Z,30.98
2023-03-02T21:04:22.672Z,27.35
2023-03-02T21:06:52.925Z,28.80
2023-03-02T21:09:20.277Z,28.73
2023-03-02T21:11:48.200Z,28.90
2023-03-02T21:14:15.677Z,29.13
2023-03-02T21:16:44.756Z,28.30
2023-03-02T21:19:17.040Z,29.88
2023-03-02T21:21:45.084Z,30.90
2023-03-02T21:24:18.307Z,32.15
2023-03-02T21:26:48.042Z,31.75
2023-03-02T21:29:17.936Z,31.80
2023-03-02T21:31:46.188Z,33.17
2023-03-02T21:34:14.468Z,33.30
2023-03-02T21:36:43.039Z,35.25
2023-03-02T21:39:11.825Z,34.03
2023-03-02T21:41:38.973Z,34.03
2023-03-02T21:44:06.835Z,35.60
2023-03-02T21:46:37.000Z,35.45
2023-03-02T21:49:04.988Z,35.35
2023-03-02T21:51:33.366Z,37.95
2023-03-02T21:54:00.480Z,36.10
2023-03-02T21:56:29.858Z,37.38
2023-03-02T21:58:57.488Z,36.60
2023-03-02T22:01:26.907Z,37.95
2023-03-02T22:03:54.099Z,40.58
2023-03-02T22:06:31.964Z,40.55
2023-03-02T22:08:59.438Z,35.90
2023-03-02T22:11:31.912Z,38.13
2023-03-02T22:14:03.354Z,40.03
2023-03-02T22:16:37.708Z,39.28
2023-03-02T22:19:25.709Z,39.78
2023-03-02T22:21:55.443Z,43.78
2023-03-02T22:24:27.728Z,41.50
2023-03-02T22:27:28.190Z,41.22
2023-03-02T22:29:59.278Z,45.45
2023-03-02T22:32:36.402Z,41.55
2023-03-02T22:35:26.629Z,41.65
2023-03-02T22:38:11.093Z,41.88
2023-03-02T22:40:38.647Z,42.38
2023-03-02T22:43:11.417Z,40.92
2023-03-02T22:45:40.309Z,43.78
2023-03-02T22:48:15.589Z,43.60
2023-03-02T22:50:45.967Z,42.80
2023-03-02T22:53:32.270Z,46.65
2023-03-02T22:56:21.031Z,42.55
2023-03-02T22:58:51.400Z,44.33
2023-03-02T23:01:40.117Z,45.85
2023-03-02T23:04:20.423Z,41.92
2023-03-02T23:06:50.647Z,46.53
2023-03-02T23:12:25.608Z,40.80
2023-03-02T23:14:57.582Z,45.42
2023-03-02T23:17:40.040Z,40.95
2023-03-02T23:20:11.908Z,48.13
2023-03-02T23:22:39.266Z,45.08
2023-03-02T23:25:08.769Z,47.50
2023-03-02T23:27:35.957Z,48.38
2023-03-02T23:30:04.609Z,49.03
2023-03-02T23:32:31.665Z,50.80
2023-03-02T23:34:58.697Z,47.28
2023-03-02T23:37:25.753Z,47.53
2023-03-02T23:39:52.832Z,48.53
2023-03-02T23:42:19.971Z,51.75
2023-03-02T23:44:47.064Z,51.33
2023-03-02T23:47:14.235Z,49.38
2023-03-02T23:49:41.195Z,44.90
2023-03-02T23:52:08.196Z,46.85
2023-03-02T23:54:35.232Z,42.92
2023-03-02T23:57:02.237Z,52.33
2023-03-02T23:59:29.314Z,56.55
